Time;durP1;ratioP1;P1;durP2;ratioP2;P2;SDS_P1;SDS_P2;PMS_P1;PMS_P2;Temp;Humidity;BMP_temperature;BMP_pressure;BME280_temperature;BME280_humidity;BME280_pressure;Samples;Min_cycle;Max_cycle;Signal;HPM_P1;HPM_P2
2022/05/23 00:02:16;;;;;;;;;4.33;3.67;;;;;20.32;54.26;99997.19;5076983;27;45422;-73
2022/05/23 00:04:42;;;;;;;;;4.00;4.00;;;;;20.76;54.38;100068.97;5093123;27;45478;-75
2022/05/23 00:07:29;;;;;;;;;4.00;3.33;;;;;20.78;54.36;100072.28;5079424;27;45307;-76
2022/05/23 00:09:55;;;;;;;;;6.33;6.33;;;;;20.77;54.73;100069.81;5096137;27;46594;-74
2022/05/23 00:12:22;;;;;;;;;5.00;5.00;;;;;20.05;55.02;99961.59;5091510;27;45562;-73
2022/05/23 00:14:48;;;;;;;;;6.00;4.67;;;;;20.63;55.19;100072.69;5079274;28;45396;-75
2022/05/23 00:17:13;;;;;;;;;5.00;5.00;;;;;20.61;55.31;100060.44;5066041;27;45328;-74
2022/05/23 00:19:39;;;;;;;;;5.33;5.33;;;;;20.30;55.00;100019.03;5068873;27;47487;-78
2022/05/23 00:22:05;;;;;;;;;5.33;5.00;;;;;20.64;55.14;100057.31;5079248;27;45558;-75
2022/05/23 00:24:30;;;;;;;;;2.67;1.00;;;;;20.62;55.72;100045.88;5065964;28;45506;-73
2022/05/23 00:26:56;;;;;;;;;5.00;4.00;;;;;20.41;55.65;100022.84;5091742;27;45443;-74
2022/05/23 00:29:22;;;;;;;;;7.33;7.33;;;;;20.57;55.79;100049.25;5073196;28;48882;-78
2022/05/23 00:37:24;;;;;;;;;3.67;3.67;;;;;20.58;55.67;100018.50;5079160;28;45525;-77
2022/05/23 00:39:49;;;;;;;;;4.33;4.33;;;;;20.57;55.53;100021.44;5078490;27;46815;-78
2022/05/23 00:45:04;;;;;;;;;5.00;4.00;;;;;20.52;55.37;100029.38;5096130;27;45524;-75
2022/05/23 00:47:33;;;;;;;;;3.33;3.33;;;;;20.33;55.69;99977.25;5078147;27;45672;-75
2022/05/23 00:49:59;;;;;;;;;4.33;4.33;;;;;20.45;56.06;99997.09;5090386;27;46440;-74
2022/05/23 00:52:48;;;;;;;;;4.00;4.00;;;;;20.49;56.26;100013.66;5070666;27;46213;-75
2022/05/23 00:55:23;;;;;;;;;5.00;4.00;;;;;20.55;55.99;99991.13;5088254;27;45577;-75
2022/05/23 00:57:51;;;;;;;;;4.33;4.33;;;;;20.56;55.81;99987.38;5078235;27;45483;-77
2022/05/23 01:00:17;;;;;;;;;3.00;3.00;;;;;20.22;55.21;99924.00;5061351;27;45542;-74
2022/05/23 01:02:48;;;;;;;;;5.00;5.00;;;;;20.60;55.44;99983.16;5097451;27;45843;-75
2022/05/23 01:05:13;;;;;;;;;4.67;4.67;;;;;20.54;54.76;99963.31;5087774;27;46018;-75
2022/05/23 01:07:39;;;;;;;;;5.00;5.00;;;;;20.76;55.31;99977.13;5088654;27;45244;-75
2022/05/23 01:10:05;;;;;;;;;2.33;2.33;;;;;20.85;55.00;99975.78;5068060;27;47018;-76
2022/05/23 01:12:31;;;;;;;;;7.67;5.33;;;;;20.72;54.94;99938.13;5082536;27;45257;-74
2022/05/23 01:14:58;;;;;;;;;5.67;3.67;;;;;20.75;54.95;99959.28;5065661;27;45259;-74
2022/05/23 01:17:26;;;;;;;;;3.33;3.33;;;;;19.75;54.92;99781.59;5086869;27;45535;-75
2022/05/23 01:19:52;;;;;;;;;5.00;5.00;;;;;20.60;54.79;99905.66;5075601;27;48176;-78
2022/05/23 01:22:32;;;;;;;;;6.67;6.00;;;;;20.73;54.97;99920.88;5084297;27;45466;-75
2022/05/23 01:25:23;;;;;;;;;3.00;3.00;;;;;20.40;55.38;99869.97;5096459;27;45250;-73
2022/05/23 01:27:50;;;;;;;;;4.00;3.33;;;;;20.53;55.41;99890.63;5097371;27;45303;-73
2022/05/23 01:30:17;;;;;;;;;3.00;3.00;;;;;20.31;55.31;99866.78;5081942;27;45736;-75
2022/05/23 01:32:43;;;;;;;;;6.00;5.00;;;;;20.30;55.46;99881.34;5092902;27;45453;-73
2022/05/23 01:35:10;;;;;;;;;4.00;4.00;;;;;20.09;55.63;99846.75;5097144;27;45880;-74
2022/05/23 01:37:35;;;;;;;;;3.00;3.00;;;;;20.35;55.49;99878.78;5075705;28;45549;-76
2022/05/23 01:40:02;;;;;;;;;4.67;3.67;;;;;20.35;55.53;99894.16;5060787;27;48148;-75
2022/05/23 01:42:28;;;;;;;;;3.67;3.67;;;;;19.77;55.70;99792.16;5081772;27;46068;-75
2022/05/23 01:44:53;;;;;;;;;3.00;3.00;;;;;20.42;55.58;99881.41;5078194;27;45617;-75
2022/05/23 01:47:21;;;;;;;;;5.00;5.00;;;;;19.88;55.85;99796.00;5062671;27;45661;-74
2022/05/23 01:49:47;;;;;;;;;4.00;4.00;;;;;20.21;55.80;99834.13;5091612;27;45772;-75
2022/05/23 01:52:12;;;;;;;;;4.67;4.67;;;;;19.59;55.59;99728.31;5069807;28;45501;-74
2022/05/23 01:54:39;;;;;;;;;11.67;11.67;;;;;20.38;55.60;99855.06;5086720;27;45534;-74
2022/05/23 01:57:07;;;;;;;;;5.33;4.33;;;;;20.43;55.41;99852.56;5087794;27;45257;-74
2022/05/23 02:02:16;;;;;;;;;5.67;4.00;;;;;19.31;55.36;99666.03;5081931;27;45383;-74
2022/05/23 02:04:43;;;;;;;;;5.00;4.00;;;;;20.09;55.62;99795.50;5079505;27;45401;-73
2022/05/23 02:07:09;;;;;;;;;6.00;3.00;;;;;20.08;55.53;99782.22;5087913;27;45314;-75
2022/05/23 02:09:35;;;;;;;;;6.00;6.00;;;;;20.32;55.60;99814.47;5086798;27;45470;-76
2022/05/23 02:12:01;;;;;;;;;4.67;4.67;;;;;20.34;55.07;99816.91;5077877;27;45502;-76
2022/05/23 02:14:27;;;;;;;;;3.33;3.33;;;;;20.23;55.08;99798.84;5095226;27;45516;-74
2022/05/23 02:16:52;;;;;;;;;5.00;3.00;;;;;20.40;55.28;99834.88;5078616;27;45735;-74
2022/05/23 02:19:18;;;;;;;;;3.67;3.67;;;;;20.31;55.37;99826.31;5071806;28;47137;-74
2022/05/23 02:21:43;;;;;;;;;4.00;4.00;;;;;20.51;55.20;99849.53;5072051;28;45552;-74
2022/05/23 02:24:08;;;;;;;;;3.00;3.00;;;;;20.53;55.36;99863.63;5076883;27;45355;-74
2022/05/23 02:26:34;;;;;;;;;3.67;3.67;;;;;20.54;55.05;99865.25;5081258;27;46392;-73
2022/05/23 02:29:01;;;;;;;;;3.00;3.00;;;;;20.39;55.20;99845.91;5090139;27;46413;-76
2022/05/23 02:31:27;;;;;;;;;5.00;4.67;;;;;20.42;55.08;99853.59;5075111;27;45534;-73
2022/05/23 02:33:53;;;;;;;;;5.00;5.00;;;;;19.45;55.17;99707.94;5086265;27;45442;-75
2022/05/23 02:36:19;;;;;;;;;5.33;5.33;;;;;18.47;54.86;99558.03;5081612;27;45320;-74
2022/05/23 02:38:44;;;;;;;;;4.00;4.00;;;;;20.41;54.99;99860.88;5096821;27;46109;-77
2022/05/23 02:41:10;;;;;;;;;3.00;3.00;;;;;20.17;55.42;99824.84;5081564;27;45550;-75
2022/05/23 02:43:35;;;;;;;;;3.00;3.00;;;;;19.98;55.15;99793.56;5086421;27;45616;-75
2022/05/23 02:46:00;;;;;;;;;3.00;3.00;;;;;19.52;55.51;99716.75;5094744;27;45293;-74
2022/05/23 02:48:26;;;;;;;;;6.00;5.33;;;;;19.83;55.79;99763.50;5061332;28;47634;-73
2022/05/23 02:50:52;;;;;;;;;3.00;3.00;;;;;19.69;55.30;99754.75;5092094;27;46026;-76
2022/05/23 02:53:17;;;;;;;;;3.33;3.33;;;;;20.48;55.26;99866.19;5077504;28;45391;-74
2022/05/23 02:55:42;;;;;;;;;3.00;3.00;;;;;20.45;55.33;99859.38;5080201;27;45569;-73
2022/05/23 02:58:08;;;;;;;;;5.00;5.00;;;;;20.32;55.43;99829.81;5079751;27;46288;-77
2022/05/23 03:00:34;;;;;;;;;4.00;3.33;;;;;20.28;55.13;99818.66;5088043;27;45355;-78
2022/05/23 03:03:03;;;;;;;;;4.00;4.00;;;;;20.22;55.56;99814.19;5086995;27;45543;-76
2022/05/23 03:05:42;;;;;;;;;3.33;3.33;;;;;20.16;54.87;99815.09;5074474;28;45876;-75
2022/05/23 03:08:09;;;;;;;;;6.67;4.67;;;;;20.34;55.04;99842.03;5083796;27;45473;-74
2022/05/23 03:10:35;;;;;;;;;3.00;3.00;;;;;19.87;55.30;99775.47;5087819;27;45537;-74
2022/05/23 03:13:01;;;;;;;;;4.67;2.67;;;;;20.32;55.31;99856.81;5077200;27;45347;-75
2022/05/23 03:15:28;;;;;;;;;3.00;3.00;;;;;20.52;55.42;99888.97;5065425;27;45565;-77
2022/05/23 03:17:54;;;;;;;;;3.00;3.00;;;;;20.22;55.56;99841.19;5083522;27;45343;-75
2022/05/23 03:20:19;;;;;;;;;4.00;3.00;;;;;20.56;55.56;99884.75;5088559;27;45220;-74
2022/05/23 03:28:13;;;;;;;;;6.00;5.00;;;;;20.51;55.36;99852.22;5098523;27;45796;-76
2022/05/23 03:30:39;;;;;;;;;3.67;3.67;;;;;20.59;55.20;99858.09;5077099;27;45438;-74
2022/05/23 03:33:04;;;;;;;;;4.00;3.33;;;;;20.33;55.02;99808.00;5080710;27;45264;-76
2022/05/23 03:35:32;;;;;;;;;4.67;4.67;;;;;20.32;55.27;99809.06;5073939;28;45609;-76
2022/05/23 03:37:58;;;;;;;;;4.00;4.00;;;;;20.10;55.55;99783.63;5084774;27;45331;-73
2022/05/23 03:40:23;;;;;;;;;4.00;4.00;;;;;20.31;55.78;99804.72;5078364;27;45478;-75
2022/05/23 03:42:49;;;;;;;;;4.67;4.00;;;;;20.21;55.96;99780.13;5094521;27;45529;-76
2022/05/23 03:45:16;;;;;;;;;4.00;4.00;;;;;20.35;56.51;99813.16;5064082;27;45633;-76
2022/05/23 03:47:42;;;;;;;;;5.67;5.00;;;;;19.89;56.47;99752.59;5093848;27;45732;-75
2022/05/23 03:50:08;;;;;;;;;6.00;5.67;;;;;20.29;57.44;99804.13;5063290;28;45699;-77
2022/05/23 03:52:33;;;;;;;;;4.00;4.00;;;;;20.41;57.96;99819.53;5064408;28;45419;-74
2022/05/23 03:54:59;;;;;;;;;4.00;4.00;;;;;20.00;57.63;99748.28;5070206;28;46625;-75
2022/05/23 03:57:24;;;;;;;;;4.00;4.00;;;;;20.27;57.10;99806.22;5079119;28;46838;-74
2022/05/23 03:59:52;;;;;;;;;4.00;4.00;;;;;20.34;57.67;99812.34;5084034;27;45261;-74
2022/05/23 04:02:17;;;;;;;;;6.00;4.67;;;;;20.28;58.66;99813.28;5076274;28;45535;-78
2022/05/23 04:04:43;;;;;;;;;6.67;6.00;;;;;19.55;58.67;99683.97;5074139;27;45494;-76
2022/05/23 04:07:08;;;;;;;;;6.00;5.00;;;;;20.40;58.95;99812.47;5079088;28;46525;-75
2022/05/23 04:09:34;;;;;;;;;5.67;4.67;;;;;20.23;58.44;99779.94;5060138;28;45484;-76
2022/05/23 04:11:59;;;;;;;;;5.00;5.00;;;;;20.31;57.60;99774.19;5066603;27;45470;-74
2022/05/23 04:14:26;;;;;;;;;3.00;3.00;;;;;19.09;58.03;99582.16;5061580;28;45578;-77
2022/05/23 04:16:52;;;;;;;;;6.67;5.00;;;;;19.99;57.92;99739.38;5065009;27;48413;-75
2022/05/23 04:19:19;;;;;;;;;4.33;4.33;;;;;20.02;58.55;99771.31;5079287;27;45599;-75
2022/05/23 04:21:46;;;;;;;;;5.00;5.00;;;;;19.88;58.59;99736.66;5065478;27;45343;-76
2022/05/23 04:24:12;;;;;;;;;5.00;5.00;;;;;20.08;58.16;99764.16;5078882;27;45364;-77
2022/05/23 04:26:38;;;;;;;;;7.00;7.00;;;;;19.97;59.05;99746.03;5060649;28;47718;-76
2022/05/23 04:29:06;;;;;;;;;4.00;3.00;;;;;20.03;59.15;99750.53;5074997;27;45594;-77
2022/05/23 04:31:33;;;;;;;;;7.00;6.00;;;;;19.18;59.31;99601.53;5079822;27;45519;-78
2022/05/23 04:36:42;;;;;;;;;5.33;5.33;;;;;19.61;59.83;99656.09;5081512;27;45801;-77
2022/05/23 04:39:08;;;;;;;;;7.33;7.33;;;;;19.85;60.27;99677.75;5094811;27;45304;-78
2022/05/23 04:41:34;;;;;;;;;6.00;6.00;;;;;19.84;60.38;99670.72;5087066;27;45482;-77
2022/05/23 04:43:59;;;;;;;;;6.67;6.00;;;;;19.93;60.82;99674.72;5060810;27;45428;-76
2022/05/23 04:46:27;;;;;;;;;4.67;4.67;;;;;19.99;60.71;99712.38;5043058;28;45930;-76
2022/05/23 04:51:36;;;;;;;;;5.33;5.33;;;;;19.95;61.50;99705.00;5096240;27;45533;-75
2022/05/23 04:54:02;;;;;;;;;9.00;9.00;;;;;19.98;62.07;99701.81;5078666;27;45546;-77
2022/05/23 04:56:29;;;;;;;;;10.67;9.33;;;;;19.67;61.94;99646.28;5092863;27;48375;-73
2022/05/23 04:58:55;;;;;;;;;7.00;7.00;;;;;20.30;62.19;99742.88;5084601;27;45346;-77
2022/05/23 05:01:21;;;;;;;;;9.00;9.00;;;;;20.17;62.06;99716.88;5081531;27;46250;-75
2022/05/23 05:03:47;;;;;;;;;6.67;5.33;;;;;19.49;62.30;99579.72;5076119;27;45553;-73
2022/05/23 05:06:12;;;;;;;;;5.33;5.33;;;;;19.91;61.59;99644.47;5077820;27;46102;-75
2022/05/23 05:08:38;;;;;;;;;3.67;3.67;;;;;20.12;61.37;99684.38;5076592;28;45361;-75
2022/05/23 05:11:04;;;;;;;;;5.67;5.00;;;;;20.10;61.03;99674.88;5062264;27;45566;-77
2022/05/23 05:13:33;;;;;;;;;9.00;6.67;;;;;19.73;61.57;99627.28;5086754;27;45585;-73
2022/05/23 05:16:03;;;;;;;;;7.00;5.33;;;;;20.14;61.77;99671.47;5081304;27;46460;-74
2022/05/23 05:18:30;;;;;;;;;6.00;6.00;;;;;19.55;61.06;99604.97;5095500;27;45315;-76
2022/05/23 05:21:01;;;;;;;;;7.67;7.67;;;;;19.83;61.62;99671.78;5095273;27;45319;-74
2022/05/23 05:23:27;;;;;;;;;6.00;6.00;;;;;19.94;61.71;99689.84;5063871;27;45336;-75
2022/05/23 05:25:52;;;;;;;;;9.00;9.00;;;;;19.79;61.77;99654.38;5086983;27;46121;-75
2022/05/23 05:28:19;;;;;;;;;8.33;7.00;;;;;19.84;61.39;99649.16;5083965;27;45374;-75
2022/05/23 05:30:54;;;;;;;;;9.67;6.33;;;;;19.96;61.68;99669.69;5086210;27;45572;-73
2022/05/23 05:33:24;;;;;;;;;10.67;8.67;;;;;19.88;62.02;99697.00;5082134;27;45327;-73
2022/05/23 05:35:59;;;;;;;;;6.67;6.67;;;;;19.85;62.40;99693.94;5078112;28;46777;-72
2022/05/23 05:38:50;;;;;;;;;7.33;6.00;;;;;19.87;62.76;99702.63;5080134;27;45469;-72
2022/05/23 05:41:22;;;;;;;;;8.00;6.00;;;;;19.98;62.97;99720.72;5077572;27;45307;-74
2022/05/23 05:43:55;;;;;;;;;6.33;6.33;;;;;19.78;62.37;99699.41;5091503;27;45533;-74
2022/05/23 05:46:36;;;;;;;;;7.00;7.00;;;;;19.83;62.44;99682.56;5097704;27;46379;-73
2022/05/23 05:49:05;;;;;;;;;11.67;10.33;;;;;20.04;62.45;99703.63;5086858;27;45445;-76
2022/05/23 05:51:33;;;;;;;;;11.00;9.00;;;;;19.71;62.47;99593.53;5084459;27;45352;-74
2022/05/23 05:53:58;;;;;;;;;12.00;11.00;;;;;19.69;62.76;99565.97;5077956;27;45346;-74
2022/05/23 05:56:24;;;;;;;;;12.33;12.33;;;;;20.74;62.08;99686.69;5077550;28;46128;-74
2022/05/23 05:58:50;;;;;;;;;12.67;9.67;;;;;20.73;61.20;99637.25;5077120;28;45407;-74
2022/05/23 06:01:15;;;;;;;;;10.00;10.00;;;;;20.78;60.75;99574.41;5059467;28;45331;-75
2022/05/23 06:03:40;;;;;;;;;9.00;8.00;;;;;21.53;59.66;99647.25;5077623;28;45555;-78
2022/05/23 06:11:35;;;;;;;;;5.00;5.00;;;;;21.99;57.89;99705.72;5078495;27;45437;-74
2022/05/23 06:14:03;;;;;;;;;9.67;9.00;;;;;21.96;58.10;99730.56;5098094;27;45562;-76
2022/05/23 06:16:36;;;;;;;;;9.00;6.00;;;;;21.79;58.38;99694.53;5079620;27;47683;-76
2022/05/23 06:19:01;;;;;;;;;8.33;6.67;;;;;21.59;57.87;99667.91;5079647;27;46420;-72
2022/05/23 06:21:28;;;;;;;;;9.33;8.67;;;;;21.33;58.21;99644.16;5079667;27;45284;-73
2022/05/23 06:23:54;;;;;;;;;6.67;6.67;;;;;21.75;58.52;99721.25;5098106;27;45233;-75
2022/05/23 06:26:21;;;;;;;;;7.00;7.00;;;;;21.73;58.84;99706.31;5097983;27;46624;-76
2022/05/23 06:28:48;;;;;;;;;8.67;8.67;;;;;21.69;58.80;99699.75;5098063;27;45551;-74
2022/05/23 06:31:15;;;;;;;;;13.00;10.00;;;;;21.27;58.83;99631.63;5079026;27;45375;-77
2022/05/23 06:33:41;;;;;;;;;11.33;11.33;;;;;21.52;59.32;99668.06;5080132;27;45565;-74
2022/05/23 06:36:08;;;;;;;;;7.00;7.00;;;;;21.55;59.68;99677.59;5079127;27;45424;-73
2022/05/23 06:38:35;;;;;;;;;11.00;9.67;;;;;21.51;59.99;99655.63;5080315;27;45312;-74
2022/05/23 06:41:03;;;;;;;;;8.67;8.67;;;;;21.47;60.23;99638.25;5079796;27;45426;-75
2022/05/23 06:43:29;;;;;;;;;6.67;5.67;;;;;21.45;59.76;99647.66;5078210;27;45430;-72
2022/05/23 06:45:59;;;;;;;;;9.33;7.00;;;;;21.40;59.78;99634.84;5077053;28;46106;-75
2022/05/23 06:48:25;;;;;;;;;7.00;7.00;;;;;21.36;59.67;99641.81;5076811;28;45285;-78
2022/05/23 06:50:51;;;;;;;;;9.33;8.00;;;;;21.33;60.24;99636.88;5076563;28;46004;-73
2022/05/23 06:53:21;;;;;;;;;5.33;4.67;;;;;21.43;60.11;99657.91;5076938;28;45445;-75
2022/05/23 06:55:47;;;;;;;;;6.00;6.00;;;;;20.98;60.04;99590.19;5076410;28;46171;-76
2022/05/23 06:58:13;;;;;;;;;7.67;7.67;;;;;21.05;60.27;99612.53;5058768;28;45253;-76
2022/05/23 07:00:39;;;;;;;;;1.67;1.67;;;;;21.13;60.67;99621.06;5078189;28;45490;-74
2022/05/23 07:03:05;;;;;;;;;9.00;6.00;;;;;20.88;60.77;99586.25;5078154;28;45229;-74
2022/05/23 07:13:47;;;;;;;;;9.67;9.67;;;;;21.18;61.53;99645.47;5094265;27;45287;-73
2022/05/23 07:16:13;;;;;;;;;9.67;8.00;;;;;21.10;61.63;99639.63;5100429;27;46681;-75
2022/05/23 07:18:38;;;;;;;;;7.33;4.67;;;;;20.45;61.75;99531.88;5082107;27;45400;-75
2022/05/23 07:21:07;;;;;;;;;9.00;8.67;;;;;21.17;61.81;99670.03;5100332;27;45317;-75
2022/05/23 07:23:35;;;;;;;;;9.33;8.00;;;;;20.34;62.29;99523.50;5102312;27;45340;-76
2022/05/23 07:26:05;;;;;;;;;10.00;10.00;;;;;20.14;62.27;99482.59;5083191;27;45890;-76
2022/05/23 07:28:31;;;;;;;;;8.67;8.67;;;;;20.71;62.16;99579.94;5100616;27;45384;-74
2022/05/23 07:30:57;;;;;;;;;11.67;11.67;;;;;20.74;62.59;99614.56;5081620;27;45433;-75
2022/05/23 07:33:23;;;;;;;;;10.00;8.67;;;;;21.03;62.38;99661.41;5100198;27;45509;-74
2022/05/23 07:36:00;;;;;;;;;17.33;16.00;;;;;21.03;62.20;99645.19;5100203;27;46330;-73
2022/05/23 07:38:27;;;;;;;;;12.33;11.33;;;;;21.23;61.99;99669.09;5081627;27;45712;-73
2022/05/23 07:40:54;;;;;;;;;10.33;9.67;;;;;21.15;62.58;99673.00;5082305;27;45499;-72
2022/05/23 07:43:19;;;;;;;;;9.33;9.33;;;;;21.14;62.79;99662.41;5100630;27;45516;-75
2022/05/23 07:45:47;;;;;;;;;11.00;10.00;;;;;21.13;63.25;99639.16;5063222;28;48060;-74
2022/05/23 07:48:12;;;;;;;;;13.33;11.67;;;;;21.20;63.98;99593.88;5079433;28;45324;-71
2022/05/23 07:50:38;;;;;;;;;14.00;10.00;;;;;21.50;62.78;99534.16;5079768;28;45506;-73
2022/05/23 08:01:16;;;;;;;;;11.33;10.00;;;;;22.94;58.32;99549.53;5080649;27;45416;-73
2022/05/23 08:03:42;;;;;;;;;13.00;11.00;;;;;23.21;58.54;99603.75;5061862;28;45220;-72
2022/05/23 08:06:09;;;;;;;;;10.67;9.00;;;;;23.08;58.42;99575.19;5079694;28;45700;-74
2022/05/23 08:08:35;;;;;;;;;11.33;10.00;;;;;23.19;59.17;99589.66;5080972;28;45459;-74
2022/05/23 08:11:01;;;;;;;;;10.67;9.67;;;;;22.85;58.66;99540.22;5082137;28;45453;-77
2022/05/23 08:13:27;;;;;;;;;13.00;12.67;;;;;22.69;59.51;99531.88;5080475;28;45573;-74
2022/05/23 08:15:52;;;;;;;;;14.00;11.33;;;;;23.06;60.31;99596.31;5079281;28;46028;-74
2022/05/23 08:18:18;;;;;;;;;14.67;11.00;;;;;22.89;60.83;99558.41;5079692;28;45542;-76
2022/05/23 08:20:44;;;;;;;;;12.67;11.67;;;;;23.12;61.59;99599.88;5079536;28;45442;-72
2022/05/23 08:23:10;;;;;;;;;13.33;10.67;;;;;23.16;61.52;99618.09;5061078;28;45375;-73
2022/05/23 08:25:36;;;;;;;;;14.33;13.33;;;;;22.81;61.39;99566.94;5077354;28;48266;-71
2022/05/23 08:28:01;;;;;;;;;15.00;15.00;;;;;22.69;61.80;99591.47;5061433;28;45395;-76
2022/05/23 08:30:29;;;;;;;;;11.67;11.00;;;;;22.76;62.28;99640.88;5079404;28;45366;-75
2022/05/23 08:32:55;;;;;;;;;14.00;13.33;;;;;22.56;62.57;99608.09;5061139;28;45551;-75
2022/05/23 08:35:23;;;;;;;;;11.00;11.00;;;;;22.42;62.26;99587.84;5079131;28;46425;-75
2022/05/23 08:37:48;;;;;;;;;11.33;10.67;;;;;22.54;63.23;99610.22;5078787;28;45442;-73
2022/05/23 08:40:13;;;;;;;;;17.67;13.33;;;;;21.89;63.45;99499.91;5081288;28;45666;-70
2022/05/23 08:42:51;;;;;;;;;12.67;11.33;;;;;22.03;62.52;99528.25;5067523;28;45593;-72
2022/05/23 08:45:21;;;;;;;;;11.33;8.67;;;;;22.60;62.64;99625.47;5058911;28;46751;-72
2022/05/23 08:48:08;;;;;;;;;12.00;11.33;;;;;22.67;62.56;99609.06;5058929;28;45427;-74
2022/05/23 08:50:59;;;;;;;;;13.00;10.33;;;;;22.57;62.37;99593.47;5040070;28;45260;-73
2022/05/23 08:53:30;;;;;;;;;11.33;10.67;;;;;22.69;61.57;99613.16;5058395;28;45522;-72
2022/05/23 08:56:11;;;;;;;;;9.33;9.33;;;;;22.66;61.10;99632.63;5059734;28;46169;-77
2022/05/23 08:58:41;;;;;;;;;11.33;9.33;;;;;22.03;61.02;99524.72;5041906;28;45297;-74
2022/05/23 09:01:15;;;;;;;;;10.67;10.33;;;;;22.32;61.12;99587.72;5041914;28;45431;-76
2022/05/23 09:03:50;;;;;;;;;12.00;11.00;;;;;22.36;61.39;99596.97;5048468;28;45459;-76
2022/05/23 09:06:36;;;;;;;;;12.67;12.67;;;;;21.67;61.29;99497.13;5070379;28;45710;-73
2022/05/23 09:09:13;;;;;;;;;10.67;10.67;;;;;22.26;61.05;99610.38;5053076;28;45393;-73
2022/05/23 09:11:42;;;;;;;;;10.33;10.33;;;;;22.37;61.07;99647.34;5048980;28;45649;-72
2022/05/23 09:14:11;;;;;;;;;8.00;8.00;;;;;22.07;60.93;99626.88;5061059;28;45617;-73
2022/05/23 09:16:44;;;;;;;;;11.00;11.00;;;;;22.23;60.83;99637.94;5075495;28;45749;-73
2022/05/23 09:19:21;;;;;;;;;12.00;12.00;;;;;22.23;60.78;99632.53;5073457;28;45348;-71
2022/05/23 09:24:47;;;;;;;;;11.33;10.33;;;;;22.19;60.42;99602.41;5062590;28;45537;-74
2022/05/23 09:27:17;;;;;;;;;15.67;13.33;;;;;22.29;60.63;99602.56;5058416;28;45842;-72
2022/05/23 09:29:45;;;;;;;;;13.00;13.00;;;;;22.13;60.08;99571.72;5040441;28;45456;-75
2022/05/23 09:32:17;;;;;;;;;17.33;14.67;;;;;22.26;60.20;99589.53;5041250;28;45496;-71
2022/05/23 09:34:57;;;;;;;;;15.33;15.33;;;;;22.64;59.46;99620.41;5057441;28;45238;-73
2022/05/23 09:37:38;;;;;;;;;13.33;12.67;;;;;22.68;57.99;99626.97;5056736;28;45726;-74
2022/05/23 09:40:05;;;;;;;;;14.00;12.00;;;;;22.74;58.40;99621.34;5059597;28;45218;-76
2022/05/23 09:48:18;;;;;;;;;14.67;14.67;;;;;23.00;57.51;99581.03;5095932;27;45867;-74
2022/05/23 09:50:51;;;;;;;;;19.00;17.00;;;;;23.26;57.49;99607.38;5077725;27;45302;-73
2022/05/23 09:53:30;;;;;;;;;15.33;15.33;;;;;22.68;56.60;99513.97;5087351;27;45627;-73
2022/05/23 09:56:21;;;;;;;;;12.00;12.00;;;;;23.30;56.64;99616.63;5092954;27;45240;-75
2022/05/23 09:58:47;;;;;;;;;12.00;11.00;;;;;23.10;56.25;99593.91;5087145;27;45500;-71
2022/05/23 10:01:24;;;;;;;;;21.33;18.67;;;;;22.69;56.37;99537.28;5083783;27;45477;-72
2022/05/23 10:03:51;;;;;;;;;13.67;13.67;;;;;23.06;56.50;99607.16;5080210;27;45514;-75
2022/05/23 10:06:17;;;;;;;;;16.67;14.67;;;;;23.03;56.75;99599.53;5077183;27;45390;-72
2022/05/23 10:08:48;;;;;;;;;15.67;14.67;;;;;23.09;56.42;99606.63;5064399;27;46227;-74
2022/05/23 10:11:34;;;;;;;;;19.33;18.33;;;;;22.47;56.27;99517.50;5074755;27;45510;-74
2022/05/23 10:14:03;;;;;;;;;16.33;16.33;;;;;23.05;55.90;99610.94;5091526;27;45539;-73
2022/05/23 10:16:31;;;;;;;;;32.33;30.67;;;;;22.15;55.59;99471.31;5071742;28;45493;-74
2022/05/23 10:19:01;;;;;;;;;18.33;17.00;;;;;22.75;55.38;99578.81;5074277;27;46086;-73
2022/05/23 10:21:31;;;;;;;;;24.33;20.67;;;;;22.64;55.44;99563.50;5077052;28;45425;-75
2022/05/23 10:24:00;;;;;;;;;22.67;22.67;;;;;22.86;55.50;99613.13;5063932;27;45581;-74
2022/05/23 10:26:27;;;;;;;;;15.00;15.00;;;;;22.06;55.91;99503.44;5058992;27;45597;-73
2022/05/23 10:29:01;;;;;;;;;15.33;15.33;;;;;22.63;55.29;99591.69;5077685;27;46496;-75
2022/05/23 10:31:48;;;;;;;;;18.33;17.33;;;;;22.72;55.15;99615.34;5069781;27;45582;-74
2022/05/23 10:34:40;;;;;;;;;18.67;18.67;;;;;22.69;55.61;99612.34;5080077;27;45618;-76
2022/05/23 10:37:09;;;;;;;;;20.00;19.00;;;;;21.93;56.08;99492.91;5077511;27;45815;-73
2022/05/23 10:42:35;;;;;;;;;20.00;20.00;;;;;22.62;56.99;99620.63;5071820;27;46818;-74
2022/05/23 10:45:00;;;;;;;;;18.00;17.67;;;;;22.57;57.28;99612.44;5064854;28;45289;-75
2022/05/23 10:47:50;;;;;;;;;18.67;16.33;;;;;22.56;57.45;99613.50;5042303;28;45316;-75
2022/05/23 10:50:25;;;;;;;;;21.67;19.67;;;;;22.56;57.16;99604.56;5049241;28;47517;-74
2022/05/23 10:53:09;;;;;;;;;22.00;22.00;;;;;22.28;57.20;99568.44;5066326;28;45553;-74
2022/05/23 10:55:49;;;;;;;;;18.33;15.67;;;;;22.31;57.94;99583.38;5071591;28;45590;-74
2022/05/23 10:58:33;;;;;;;;;21.33;21.33;;;;;22.01;57.89;99546.59;5054635;28;45639;-72
2022/05/23 11:01:08;;;;;;;;;20.33;20.33;;;;;22.32;58.08;99601.25;5057779;28;47668;-75
2022/05/23 11:03:43;;;;;;;;;17.00;16.33;;;;;22.36;58.54;99607.81;5066083;28;45554;-74
2022/05/23 11:06:34;;;;;;;;;19.00;19.00;;;;;22.27;58.78;99630.97;5074553;28;45251;-75
2022/05/23 11:09:05;;;;;;;;;23.33;22.00;;;;;22.02;58.70;99634.03;5066169;28;45427;-75
2022/05/23 11:11:55;;;;;;;;;22.67;22.67;;;;;21.62;59.86;99569.25;5068633;28;47127;-73
2022/05/23 11:14:45;;;;;;;;;22.67;21.33;;;;;21.93;61.06;99603.88;5072818;28;45554;-75
2022/05/23 11:17:27;;;;;;;;;26.67;25.00;;;;;21.88;62.06;99611.09;5050391;28;45496;-75
2022/05/23 11:19:55;;;;;;;;;29.67;27.00;;;;;21.83;61.97;99618.06;5065976;28;45454;-79
2022/05/23 11:22:28;;;;;;;;;25.00;23.67;;;;;21.07;62.50;99497.72;5049104;28;45628;-75
2022/05/23 11:25:22;;;;;;;;;28.67;23.00;;;;;21.81;62.60;99622.06;5066982;28;45365;-73
2022/05/23 11:33:45;;;;;;;;;28.67;24.00;;;;;21.71;62.41;99621.88;5062441;28;45349;-74
2022/05/23 11:36:15;;;;;;;;;24.00;22.33;;;;;21.59;62.44;99608.41;5075185;28;45493;-73
2022/05/23 11:38:45;;;;;;;;;21.33;20.33;;;;;19.96;62.45;99335.16;5057821;28;45337;-73
2022/05/23 11:41:11;;;;;;;;;29.00;25.67;;;;;21.92;62.92;99618.47;5062658;28;45483;-76
2022/05/23 11:43:36;;;;;;;;;30.00;26.00;;;;;21.62;63.30;99542.19;5075566;27;47911;-77
2022/05/23 11:46:09;;;;;;;;;22.33;22.33;;;;;21.89;63.09;99566.72;5087855;27;45556;-77
2022/05/23 11:48:35;;;;;;;;;33.00;31.33;;;;;22.29;63.18;99602.56;5078246;27;45578;-76
2022/05/23 11:51:12;;;;;;;;;26.67;23.67;;;;;21.95;62.02;99530.53;5070808;27;45506;-77
2022/05/23 11:53:56;;;;;;;;;24.00;22.33;;;;;22.55;61.58;99638.97;5064240;27;49132;-78
2022/05/23 11:56:40;;;;;;;;;23.67;21.67;;;;;22.49;61.35;99633.72;5090306;27;45643;-74
2022/05/23 11:59:24;;;;;;;;;20.33;20.00;;;;;22.16;61.25;99597.47;5096743;27;45517;-72
2022/05/23 12:02:11;;;;;;;;;23.00;23.00;;;;;22.30;61.35;99630.47;5072260;27;45482;-75
2022/05/23 12:04:48;;;;;;;;;28.00;22.33;;;;;22.22;61.29;99639.81;5078358;27;45795;-75
2022/05/23 12:07:40;;;;;;;;;22.00;21.33;;;;;22.16;62.01;99636.22;5075241;27;45540;-72
2022/05/23 12:10:28;;;;;;;;;22.33;19.33;;;;;22.13;61.34;99633.19;5061500;28;45198;-78
2022/05/23 12:12:58;;;;;;;;;20.00;20.00;;;;;22.07;61.67;99640.41;5098641;27;45626;-75
2022/05/23 12:15:41;;;;;;;;;24.00;21.67;;;;;21.99;61.30;99646.16;5080732;27;46233;-72
2022/05/23 12:18:08;;;;;;;;;19.00;19.00;;;;;21.63;61.07;99646.66;5081439;27;45626;-75
2022/05/23 12:20:43;;;;;;;;;17.67;17.00;;;;;21.56;61.06;99636.78;5081928;27;45367;-72
2022/05/23 12:23:13;;;;;;;;;25.00;22.33;;;;;21.34;61.58;99608.78;5070210;28;45533;-74
2022/05/23 12:25:39;;;;;;;;;18.33;16.67;;;;;21.36;61.98;99617.47;5062843;27;47425;-76
2022/05/23 12:28:16;;;;;;;;;16.33;16.33;;;;;21.60;60.58;99668.75;5071076;27;45516;-74
2022/05/23 12:30:44;;;;;;;;;12.00;12.00;;;;;21.24;61.25;99616.72;5079909;27;46549;-76
2022/05/23 12:33:23;;;;;;;;;19.33;19.00;;;;;21.08;60.42;99617.44;5076693;27;45296;-77
2022/05/23 12:35:57;;;;;;;;;17.33;15.67;;;;;21.41;60.55;99670.81;5067481;28;45512;-75
2022/05/23 12:38:44;;;;;;;;;20.67;18.00;;;;;21.49;60.17;99690.19;5068709;28;46101;-73
2022/05/23 12:41:41;;;;;;;;;21.67;18.67;;;;;21.29;60.53;99653.84;5086501;27;45481;-75